KGRR/GRR METAR and TAF weather

Enter ICAO airport designator
Station Type Date Time Source
KGRR METAR 2019/08/25 02:53 UTC NOAA

KGRR 250253Z 07007KT 10SM CLR 16/11 A3026 RMK AO2 SLP244 T01610111 53004


Station Type Date Time Source
KGRR Decoded METAR 2019/08/25 02:53 UTC NOAA

Station name not available
Aug 24, 2019 - 10:53 PM EDT / 2019.08.25 0253 UTC
Wind: from the ENE (070 degrees) at 8 MPH (7 KT):0
Visibility: 10 mile(s):0
Sky conditions: clear
Temperature: 61.0 F (16.1 C)
Dew Point: 52.0 F (11.1 C)
Relative Humidity: 72%
Pressure (altimeter): 30.26 in. Hg (1024 hPa)
Pressure tendency: 0.01 inches (0.4 hPa) higher than three hours ago
ob: KGRR 250253Z 07007KT 10SM CLR 16/11 A3026 RMK AO2 SLP244 T01610111 53004
cycle: 3

Station Type Date Time Source
KGRR TAF 2019/08/24 18:42 UTC NOAA

TAF KGRR 241740Z 2418/2518 09008KT P6SM FEW045

Example: see airport list